createdAt,value
2018-04-23T00:00:31.177Z,14.85
2018-04-23T00:03:36.437Z,14.80
2018-04-23T00:06:41.733Z,14.74
2018-04-23T00:09:47.007Z,14.71
2018-04-23T00:12:52.026Z,14.66
2018-04-23T00:15:58.215Z,14.61
2018-04-23T00:19:04.413Z,14.56
2018-04-23T00:22:10.609Z,14.51
2018-04-23T00:25:16.890Z,14.46
2018-04-23T00:28:22.678Z,14.41
2018-04-23T00:31:28.902Z,14.37
2018-04-23T00:34:34.226Z,14.33
2018-04-23T00:37:39.524Z,14.29
2018-04-23T00:40:44.785Z,14.24
2018-04-23T00:43:50.984Z,14.19
2018-04-23T00:46:55.967Z,14.16
2018-04-23T00:50:02.175Z,14.12
2018-04-23T00:53:18.619Z,14.08
2018-04-23T00:56:24.337Z,14.04
2018-04-23T00:59:29.650Z,14.00
2018-04-23T01:02:35.732Z,13.96
2018-04-23T01:05:41.404Z,13.92
2018-04-23T01:08:47.270Z,13.88
2018-04-23T01:11:52.606Z,13.84
2018-04-23T01:14:58.701Z,13.79
2018-04-23T01:18:04.598Z,13.75
2018-04-23T01:21:10.690Z,13.72
2018-04-23T01:24:17.625Z,13.69
2018-04-23T01:27:23.500Z,13.65
2018-04-23T01:30:29.612Z,13.59
2018-04-23T01:33:34.887Z,13.56
2018-04-23T01:36:40.902Z,13.51
2018-04-23T01:39:46.897Z,13.47
2018-04-23T01:42:53.087Z,13.43
2018-04-23T01:45:58.964Z,13.39
2018-04-23T01:49:04.753Z,13.35
2018-04-23T01:55:15.311Z,13.28
2018-04-23T01:58:21.481Z,13.25
2018-04-23T02:01:26.749Z,13.21
2018-04-23T02:04:34.105Z,13.23
2018-04-23T02:07:39.020Z,13.26
2018-04-23T02:10:44.651Z,13.29
2018-04-23T02:13:50.669Z,13.30
2018-04-23T02:16:56.484Z,13.28
2018-04-23T02:20:01.669Z,13.21
2018-04-23T02:23:07.476Z,13.25
2018-04-23T02:26:12.836Z,13.22
2018-04-23T02:29:18.964Z,13.26
2018-04-23T02:32:24.567Z,13.24
2018-04-23T02:35:29.776Z,13.25
2018-04-23T02:38:34.757Z,13.25
2018-04-23T02:41:40.736Z,13.25
2018-04-23T02:44:45.937Z,13.28
2018-04-23T02:47:51.667Z,13.31
2018-04-23T02:50:57.407Z,13.31
2018-04-23T02:54:02.756Z,13.33
2018-04-23T02:57:08.920Z,13.33
2018-04-23T03:00:14.129Z,13.35
2018-04-23T03:03:19.348Z,13.35
2018-04-23T03:06:24.651Z,13.38
2018-04-23T03:09:29.510Z,13.39
2018-04-23T03:12:35.144Z,13.40
2018-04-23T03:15:40.111Z,13.42
2018-04-23T03:18:46.212Z,13.43
2018-04-23T03:21:51.832Z,13.44
2018-04-23T03:24:57.855Z,13.44
2018-04-23T03:28:04.022Z,13.46
2018-04-23T03:31:09.608Z,13.47
2018-04-23T03:34:15.731Z,13.46
2018-04-23T03:37:21.892Z,13.46
2018-04-23T03:40:27.084Z,13.46
2018-04-23T03:43:33.195Z,13.46
2018-04-23T03:46:39.712Z,13.46
2018-04-23T03:49:45.308Z,13.46
2018-04-23T03:52:50.518Z,13.46
2018-04-23T03:55:56.539Z,13.46
2018-04-23T03:59:02.569Z,13.47
2018-04-23T04:02:08.471Z,13.49
2018-04-23T04:05:14.348Z,13.52
2018-04-23T04:08:19.536Z,13.54
2018-04-23T04:11:24.836Z,13.56
2018-04-23T04:14:41.572Z,13.57
2018-04-23T04:21:35.440Z,13.63
2018-04-23T04:24:41.301Z,13.65
2018-04-23T04:27:47.477Z,13.68
2018-04-23T04:30:53.259Z,13.70
2018-04-23T04:33:58.191Z,13.71
2018-04-23T04:37:03.381Z,13.74
2018-04-23T04:40:09.498Z,13.76
2018-04-23T04:43:15.148Z,13.80
2018-04-23T04:46:20.994Z,13.82
2018-04-23T04:49:26.648Z,13.83
2018-04-23T04:52:32.675Z,13.85
2018-04-23T04:55:38.788Z,13.87
2018-04-23T04:58:44.874Z,13.89
2018-04-23T05:01:50.804Z,13.92
2018-04-23T05:04:56.840Z,13.94
2018-04-23T05:08:02.996Z,13.95
2018-04-23T05:11:08.925Z,13.96
2018-04-23T05:14:14.942Z,13.98
2018-04-23T05:17:21.080Z,13.99
2018-04-23T05:20:26.344Z,14.00
2018-04-23T05:23:32.067Z,14.01
2018-04-23T05:26:38.034Z,14.04
2018-04-23T05:29:43.889Z,14.05
2018-04-23T05:32:49.992Z,14.07
2018-04-23T05:35:56.032Z,14.09
2018-04-23T05:39:02.083Z,14.12
2018-04-23T05:42:06.809Z,14.16
2018-04-23T05:45:12.473Z,14.18
2018-04-23T05:48:18.506Z,14.21
2018-04-23T05:51:24.631Z,14.23
2018-04-23T05:54:30.685Z,14.26
2018-04-23T05:57:35.899Z,14.29
2018-04-23T06:00:41.133Z,14.32
2018-04-23T06:03:47.256Z,14.34
2018-04-23T06:06:52.883Z,14.36
2018-04-23T06:09:59.029Z,14.39
2018-04-23T06:13:04.944Z,14.42
2018-04-23T06:16:10.760Z,14.46
2018-04-23T06:19:16.387Z,14.50
2018-04-23T06:22:21.634Z,14.52
2018-04-23T06:25:26.897Z,14.55
2018-04-23T06:28:32.283Z,14.61
2018-04-23T06:31:37.509Z,14.66
2018-04-23T06:34:42.721Z,14.69
2018-04-23T06:37:48.940Z,14.76
2018-04-23T06:40:54.777Z,14.79
2018-04-23T06:44:00.804Z,14.84
2018-04-23T06:47:06.859Z,14.89
2018-04-23T06:50:12.912Z,14.93
2018-04-23T06:53:18.303Z,14.97
2018-04-23T06:56:23.888Z,15.00
2018-04-23T06:59:28.593Z,15.02
2018-04-23T07:02:34.433Z,15.00
2018-04-23T07:05:40.405Z,15.03
2018-04-23T07:08:46.249Z,15.03
2018-04-23T07:11:52.389Z,15.02
2018-04-23T07:14:58.521Z,15.03
2018-04-23T07:18:03.748Z,15.04
2018-04-23T07:21:09.380Z,15.05
2018-04-23T07:24:14.601Z,15.05
2018-04-23T07:27:20.247Z,15.06
2018-04-23T07:30:26.329Z,15.06
2018-04-23T07:33:32.377Z,15.10
2018-04-23T07:36:38.300Z,15.09
2018-04-23T07:39:44.216Z,15.12
2018-04-23T07:42:50.132Z,15.14
2018-04-23T07:45:56.205Z,15.17
2018-04-23T07:49:02.145Z,15.19
2018-04-23T07:52:07.906Z,15.21
2018-04-23T07:55:14.048Z,15.26
2018-04-23T07:58:20.364Z,15.28
2018-04-23T08:01:26.405Z,15.30
2018-04-23T08:04:32.731Z,15.30
2018-04-23T08:07:38.552Z,15.32
2018-04-23T08:10:44.561Z,15.31
2018-04-23T08:13:49.775Z,15.31
2018-04-23T08:16:55.000Z,15.32
2018-04-23T08:20:00.273Z,15.31
2018-04-23T08:23:06.024Z,15.32
2018-04-23T08:26:12.172Z,15.31
2018-04-23T08:29:18.305Z,15.32
2018-04-23T08:32:24.332Z,15.34
2018-04-23T08:35:31.200Z,15.33
2018-04-23T08:38:37.013Z,15.33
2018-04-23T08:41:43.027Z,15.34
2018-04-23T08:44:48.881Z,15.35
2018-04-23T08:47:54.361Z,15.35
2018-04-23T08:51:00.489Z,15.35
2018-04-23T08:54:05.904Z,15.35
2018-04-23T08:57:11.144Z,15.35
2018-04-23T09:00:17.281Z,15.33
2018-04-23T09:03:23.444Z,15.31
2018-04-23T09:06:28.312Z,15.29
2018-04-23T09:09:34.140Z,15.28
2018-04-23T09:12:39.368Z,15.25
2018-04-23T09:15:44.580Z,15.23
2018-04-23T09:18:50.321Z,15.22
2018-04-23T09:21:56.120Z,15.19
2018-04-23T09:25:01.510Z,15.17
2018-04-23T09:28:06.533Z,15.16
2018-04-23T09:31:12.505Z,15.15
2018-04-23T09:34:18.867Z,15.14
2018-04-23T09:37:25.423Z,15.13
2018-04-23T09:40:30.630Z,15.13
2018-04-23T09:43:36.768Z,15.14
2018-04-23T09:46:41.992Z,15.15
2018-04-23T09:49:47.207Z,15.19
2018-04-23T09:52:52.431Z,15.24
2018-04-23T09:55:57.632Z,15.29
2018-04-23T09:59:03.580Z,15.34
2018-04-23T10:02:09.092Z,15.35
2018-04-23T10:05:15.045Z,15.39
2018-04-23T10:08:20.458Z,15.42
2018-04-23T10:11:25.672Z,15.46
2018-04-23T10:14:30.888Z,15.48
2018-04-23T10:17:36.103Z,15.52
2018-04-23T10:20:41.319Z,15.53
2018-04-23T10:23:47.474Z,15.54
2018-04-23T10:26:52.692Z,15.51
2018-04-23T10:29:58.617Z,15.52
2018-04-23T10:33:03.834Z,15.55
2018-04-23T10:36:09.054Z,15.55
2018-04-23T10:39:13.998Z,15.57
2018-04-23T10:42:19.377Z,15.62
2018-04-23T10:45:26.131Z,15.65
2018-04-23T10:48:32.387Z,15.68
2018-04-23T10:51:38.017Z,15.74
2018-04-23T10:54:44.055Z,15.79
2018-04-23T10:57:49.869Z,15.82
2018-04-23T11:00:55.076Z,15.87
2018-04-23T11:04:00.470Z,15.88
2018-04-23T11:07:05.401Z,15.92
2018-04-23T11:10:10.605Z,15.93
2018-04-23T11:13:15.794Z,15.96
2018-04-23T11:16:21.028Z,15.96
2018-04-23T11:19:27.126Z,16.02
2018-04-23T11:22:33.143Z,15.98
2018-04-23T11:25:39.144Z,15.96
2018-04-23T11:28:45.385Z,15.96
2018-04-23T11:31:52.321Z,16.00
2018-04-23T11:34:58.123Z,16.00
2018-04-23T11:38:04.060Z,16.00
2018-04-23T11:41:09.815Z,16.04
2018-04-23T11:44:15.004Z,16.02
2018-04-23T11:47:20.620Z,16.04
2018-04-23T11:50:26.768Z,16.04
2018-04-23T11:53:32.952Z,16.08
2018-04-23T11:56:38.972Z,16.09
2018-04-23T11:59:44.884Z,16.14
2018-04-23T12:02:50.656Z,16.19
2018-04-23T12:05:55.858Z,16.27
2018-04-23T12:09:01.074Z,16.34
2018-04-23T12:12:06.915Z,16.42
2018-04-23T12:15:12.112Z,16.50
2018-04-23T12:18:17.378Z,16.57
2018-04-23T12:21:23.317Z,16.64
2018-04-23T12:24:29.240Z,16.65
2018-04-23T12:27:35.375Z,16.70
2018-04-23T12:30:41.061Z,16.72
2018-04-23T12:33:46.936Z,16.73
2018-04-23T12:36:52.213Z,16.78
2018-04-23T12:39:57.829Z,16.80
2018-04-23T12:43:03.872Z,16.83
2018-04-23T12:46:09.951Z,16.88
2018-04-23T12:49:16.289Z,16.92
2018-04-23T12:52:22.105Z,16.88
2018-04-23T12:55:28.228Z,16.86
2018-04-23T12:58:33.604Z,16.91
2018-04-23T13:01:38.813Z,16.91
2018-04-23T13:04:44.014Z,16.89
2018-04-23T13:07:49.251Z,16.90
2018-04-23T13:10:54.477Z,16.92
2018-04-23T13:13:59.680Z,16.86
2018-04-23T13:17:05.792Z,16.87
2018-04-23T13:20:11.805Z,16.86
2018-04-23T13:23:17.812Z,16.88
2018-04-23T13:26:23.841Z,16.86
2018-04-23T13:29:29.963Z,16.87
2018-04-23T13:32:35.980Z,16.95
2018-04-23T13:35:42.020Z,16.89
2018-04-23T13:38:47.952Z,16.89
2018-04-23T13:41:53.907Z,16.89
2018-04-23T13:44:59.617Z,16.88
2018-04-23T13:48:05.768Z,16.93
2018-04-23T13:51:11.687Z,16.97
2018-04-23T13:54:17.713Z,17.00
2018-04-23T13:57:23.695Z,17.08
2018-04-23T14:00:29.732Z,17.18
2018-04-23T14:03:35.869Z,17.23
2018-04-23T14:06:41.893Z,17.28
2018-04-23T14:09:48.576Z,17.28
2018-04-23T14:12:55.117Z,17.29
2018-04-23T14:16:00.601Z,17.28
2018-04-23T14:19:06.209Z,17.24
2018-04-23T14:22:12.376Z,17.21
2018-04-23T14:25:17.572Z,17.18
2018-04-23T14:28:23.499Z,17.17
2018-04-23T14:31:28.705Z,17.22
2018-04-23T14:34:34.829Z,17.20
2018-04-23T14:37:40.518Z,17.18
2018-04-23T14:40:47.659Z,17.21
2018-04-23T14:43:53.143Z,17.20
2018-04-23T14:46:59.260Z,17.20
2018-04-23T14:50:04.524Z,17.19
2018-04-23T14:53:09.803Z,17.16
2018-04-23T14:56:15.156Z,17.14
2018-04-23T14:59:20.906Z,17.13
2018-04-23T15:02:27.106Z,17.12
2018-04-23T15:05:32.319Z,17.11
2018-04-23T15:08:37.507Z,17.13
2018-04-23T15:11:42.903Z,17.13
2018-04-23T15:14:48.551Z,17.14
2018-04-23T15:17:53.768Z,17.17
2018-04-23T15:21:00.108Z,17.18
2018-04-23T15:24:05.443Z,17.16
2018-04-23T15:27:10.604Z,17.17
2018-04-23T15:30:15.816Z,17.15
2018-04-23T15:33:21.969Z,17.18
2018-04-23T15:36:27.688Z,17.19
2018-04-23T15:39:33.714Z,17.23
2018-04-23T15:42:39.721Z,17.22
2018-04-23T15:45:45.557Z,17.22
2018-04-23T15:48:50.484Z,17.24
2018-04-23T15:51:55.677Z,17.22
2018-04-23T15:55:02.813Z,17.22
2018-04-23T15:58:08.627Z,17.20
2018-04-23T16:01:13.874Z,17.13
2018-04-23T16:04:19.116Z,17.09
2018-04-23T16:07:24.381Z,17.03
2018-04-23T16:10:29.608Z,17.00
2018-04-23T16:13:36.608Z,16.96
2018-04-23T16:16:41.954Z,16.90
2018-04-23T16:19:47.148Z,16.88
2018-04-23T16:22:53.265Z,16.82
2018-04-23T16:25:58.987Z,16.77
2018-04-23T16:29:05.316Z,16.73
2018-04-23T16:32:11.445Z,16.66
2018-04-23T16:35:16.884Z,16.61
2018-04-23T16:38:22.085Z,16.52
2018-04-23T16:41:28.204Z,16.50
2018-04-23T16:44:33.414Z,16.38
2018-04-23T16:47:38.640Z,16.32
2018-04-23T16:50:43.876Z,16.27
2018-04-23T16:53:49.106Z,16.18
2018-04-23T16:56:55.336Z,16.07
2018-04-23T17:00:01.307Z,15.94
2018-04-23T17:03:06.492Z,15.83
2018-04-23T17:06:11.772Z,15.76
2018-04-23T17:09:17.914Z,15.65
2018-04-23T17:12:23.204Z,15.58
2018-04-23T17:15:29.258Z,15.52
2018-04-23T17:18:35.455Z,15.44
2018-04-23T17:21:41.668Z,15.39
2018-04-23T17:24:46.576Z,15.27
2018-04-23T17:27:51.788Z,15.19
2018-04-23T17:30:57.516Z,15.07
2018-04-23T17:34:04.369Z,15.01
2018-04-23T17:37:09.272Z,14.93
2018-04-23T17:40:15.662Z,14.81
2018-04-23T17:43:21.084Z,14.71
2018-04-23T17:46:26.041Z,14.64
2018-04-23T17:49:32.152Z,14.53
2018-04-23T17:52:37.786Z,14.48
2018-04-23T17:55:42.755Z,14.32
2018-04-23T17:58:47.988Z,14.27
2018-04-23T18:01:53.359Z,14.16
2018-04-23T18:04:58.316Z,14.05
2018-04-23T18:08:04.280Z,14.02
2018-04-23T18:11:10.119Z,13.97
2018-04-23T18:14:15.957Z,13.91
2018-04-23T18:17:20.992Z,13.86
2018-04-23T18:20:25.932Z,13.80
2018-04-23T18:23:31.476Z,13.73
2018-04-23T18:26:37.455Z,13.67
2018-04-23T18:29:42.402Z,13.61
2018-04-23T18:32:47.293Z,13.47
2018-04-23T18:35:52.885Z,13.44
2018-04-23T18:38:57.808Z,13.36
2018-04-23T18:42:02.747Z,13.20
2018-04-23T18:45:08.178Z,13.18
2018-04-23T18:48:14.052Z,13.11
2018-04-23T18:51:19.027Z,13.03
2018-04-23T18:54:23.955Z,12.97
2018-04-23T18:57:29.960Z,12.93
2018-04-23T19:00:35.318Z,12.87
2018-04-23T19:03:41.157Z,12.77
2018-04-23T19:06:46.081Z,12.74
2018-04-23T19:09:51.670Z,12.65
2018-04-23T19:12:56.876Z,12.59
2018-04-23T19:16:02.837Z,12.56
2018-04-23T19:19:09.004Z,12.49
2018-04-23T19:22:14.481Z,12.33
2018-04-23T19:25:21.160Z,12.29
2018-04-23T19:28:27.024Z,12.22
2018-04-23T19:31:32.002Z,12.13
2018-04-23T19:34:37.857Z,12.11
2018-04-23T19:37:43.256Z,11.97
2018-04-23T19:40:49.360Z,11.88
2018-04-23T19:43:55.016Z,11.84
2018-04-23T19:47:00.923Z,11.72
2018-04-23T19:50:05.273Z,11.65
2018-04-23T19:53:11.179Z,11.61
2018-04-23T19:56:17.287Z,11.59
2018-04-23T19:59:22.212Z,11.54
2018-04-23T20:02:27.653Z,11.47
2018-04-23T20:05:32.560Z,11.36
2018-04-23T20:08:37.964Z,11.27
2018-04-23T20:11:43.771Z,11.19
2018-04-23T20:14:49.128Z,11.15
2018-04-23T20:17:53.721Z,11.08
2018-04-23T20:20:59.398Z,11.00
2018-04-23T20:24:05.301Z,10.94
2018-04-23T20:27:10.898Z,10.89
2018-04-23T20:30:16.735Z,10.84
2018-04-23T20:33:22.623Z,10.80
2018-04-23T20:36:28.606Z,10.75
2018-04-23T20:39:33.203Z,10.70
2018-04-23T20:42:38.628Z,10.65
2018-04-23T20:45:44.077Z,10.62
2018-04-23T20:48:49.000Z,10.55
2018-04-23T20:51:54.192Z,10.51
2018-04-23T20:54:59.559Z,10.47
2018-04-23T20:58:04.425Z,10.44
2018-04-23T21:01:09.221Z,10.38
2018-04-23T21:04:15.234Z,10.40
2018-04-23T21:07:20.857Z,10.34
2018-04-23T21:10:27.051Z,10.29
2018-04-23T21:13:32.584Z,10.24
2018-04-23T21:16:37.788Z,10.23
2018-04-23T21:19:44.155Z,10.21
2018-04-23T21:22:49.480Z,10.12
2018-04-23T21:25:55.440Z,10.11
2018-04-23T21:29:01.036Z,10.04
2018-04-23T21:32:06.951Z,10.03
2018-04-23T21:35:13.716Z,9.99
2018-04-23T21:38:19.803Z,9.94
2018-04-23T21:41:24.990Z,9.94
2018-04-23T21:44:30.392Z,9.90
2018-04-23T21:47:37.542Z,9.86
2018-04-23T21:50:42.489Z,9.84
2018-04-23T21:53:47.420Z,9.83
2018-04-23T21:56:52.996Z,9.74
2018-04-23T21:59:57.907Z,9.70
2018-04-23T22:03:03.356Z,9.66
2018-04-23T22:06:09.192Z,9.68
2018-04-23T22:09:15.084Z,9.66
2018-04-23T22:12:20.623Z,9.64
2018-04-23T22:15:25.536Z,9.62
2018-04-23T22:18:30.941Z,9.56
2018-04-23T22:21:36.547Z,9.62
2018-04-23T22:24:41.456Z,9.54
2018-04-23T22:27:46.381Z,9.52
2018-04-23T22:30:51.804Z,9.52
2018-04-23T22:33:56.752Z,9.50
2018-04-23T22:37:02.644Z,9.51
2018-04-23T22:40:07.627Z,9.53
2018-04-23T22:43:12.580Z,9.47
2018-04-23T22:46:17.762Z,9.45
2018-04-23T22:49:22.680Z,9.42
2018-04-23T22:52:27.876Z,9.44
2018-04-23T22:55:32.822Z,9.45
2018-04-23T22:58:37.740Z,9.42
2018-04-23T23:01:42.853Z,9.40
2018-04-23T23:04:48.754Z,9.41
2018-04-23T23:07:54.583Z,9.48
2018-04-23T23:10:59.772Z,9.44
2018-04-23T23:14:05.215Z,9.44
2018-04-23T23:17:10.844Z,9.48
2018-04-23T23:20:16.875Z,9.54
2018-04-23T23:23:22.716Z,9.56
2018-04-23T23:26:28.326Z,9.60
2018-04-23T23:29:33.521Z,9.60
2018-04-23T23:32:38.744Z,9.59
2018-04-23T23:35:45.536Z,9.64
2018-04-23T23:38:50.905Z,9.70
2018-04-23T23:41:57.008Z,9.66
2018-04-23T23:45:02.653Z,9.73
2018-04-23T23:48:08.540Z,9.73
2018-04-23T23:51:13.745Z,9.75
2018-04-23T23:54:18.993Z,9.74
2018-04-23T23:57:24.173Z,9.83
